createdAt,value
2018-11-21T00:01:41.053Z,2.50
2018-11-21T00:06:44.142Z,2.50
2018-11-21T00:11:47.223Z,2.40
2018-11-21T00:16:50.496Z,2.40
2018-11-21T00:21:53.577Z,2.40
2018-11-21T00:26:56.684Z,2.40
2018-11-21T00:31:59.836Z,2.30
2018-11-21T00:37:02.919Z,2.30
2018-11-21T00:42:05.998Z,2.20
2018-11-21T00:47:09.089Z,2.20
2018-11-21T00:52:12.202Z,2.20
2018-11-21T00:57:15.270Z,2.10
2018-11-21T01:02:18.337Z,2.20
2018-11-21T01:07:21.419Z,2.10
2018-11-21T01:12:24.498Z,2.10
2018-11-21T01:17:27.626Z,2.00
2018-11-21T01:22:30.771Z,2.00
2018-11-21T01:27:33.868Z,2.00
2018-11-21T01:32:37.200Z,2.00
2018-11-21T01:37:40.283Z,2.00
2018-11-21T01:42:43.365Z,2.00
2018-11-21T01:47:46.447Z,2.00
2018-11-21T01:52:49.523Z,2.00
2018-11-21T01:57:52.683Z,1.90
2018-11-21T02:02:55.756Z,1.90
2018-11-21T02:07:58.832Z,1.90
2018-11-21T02:13:01.918Z,1.90
2018-11-21T02:18:05.172Z,1.90
2018-11-21T02:23:08.260Z,1.90
2018-11-21T02:28:11.353Z,1.90
2018-11-21T02:33:14.438Z,1.90
2018-11-21T02:38:17.552Z,1.90
2018-11-21T02:43:20.603Z,1.90
2018-11-21T02:48:23.676Z,1.90
2018-11-21T02:53:26.760Z,1.90
2018-11-21T02:58:29.816Z,1.90
2018-11-21T03:03:32.871Z,1.90
2018-11-21T03:08:35.936Z,1.90
2018-11-21T03:13:38.984Z,1.90
2018-11-21T03:18:42.101Z,1.90
2018-11-21T03:23:45.169Z,1.90
2018-11-21T03:28:48.319Z,1.90
2018-11-21T03:33:57.673Z,1.90
2018-11-21T03:38:54.532Z,1.90
2018-11-21T03:43:57.630Z,1.90
2018-11-21T03:49:00.803Z,1.90
2018-11-21T03:54:03.843Z,1.80
2018-11-21T03:59:07.203Z,1.90
2018-11-21T04:04:10.595Z,1.80
2018-11-21T04:09:13.826Z,1.80
2018-11-21T04:14:16.867Z,1.80
2018-11-21T04:19:19.948Z,1.80
2018-11-21T04:24:23.011Z,1.80
2018-11-21T04:29:26.117Z,1.80
2018-11-21T04:34:29.208Z,1.80
2018-11-21T04:39:32.254Z,1.80
2018-11-21T04:44:35.678Z,1.80
2018-11-21T04:49:38.648Z,1.80
2018-11-21T04:54:41.712Z,1.80
2018-11-21T04:59:45.143Z,1.80
2018-11-21T05:04:48.192Z,1.80
2018-11-21T05:09:51.267Z,1.70
2018-11-21T05:14:54.509Z,1.70
2018-11-21T05:19:57.724Z,1.70
2018-11-21T05:25:00.777Z,1.70
2018-11-21T05:30:04.756Z,1.70
2018-11-21T05:35:08.247Z,1.70
2018-11-21T05:40:11.572Z,1.70
2018-11-21T05:45:14.912Z,1.60
2018-11-21T05:50:17.952Z,1.60
2018-11-21T05:55:21.382Z,1.60
2018-11-21T06:00:24.444Z,1.70
2018-11-21T06:05:27.521Z,1.60
2018-11-21T06:10:30.600Z,1.60
2018-11-21T06:15:33.683Z,1.60
2018-11-21T06:20:36.911Z,1.60
2018-11-21T06:25:39.977Z,1.60
2018-11-21T06:30:43.031Z,1.60
2018-11-21T06:35:46.094Z,1.60
2018-11-21T06:40:49.131Z,1.60
2018-11-21T06:45:52.210Z,1.60
2018-11-21T06:50:55.275Z,1.50
2018-11-21T06:55:58.352Z,1.50
2018-11-21T07:01:01.441Z,1.50
2018-11-21T07:06:04.695Z,1.50
2018-11-21T07:11:07.773Z,1.50
2018-11-21T07:16:10.900Z,1.50
2018-11-21T07:21:14.102Z,1.50
2018-11-21T07:26:17.204Z,1.50
2018-11-21T07:31:20.267Z,1.50
2018-11-21T07:36:23.332Z,1.50
2018-11-21T07:41:26.559Z,1.50
2018-11-21T07:46:29.654Z,1.50
2018-11-21T07:51:33.052Z,1.50
2018-11-21T07:57:22.318Z,1.50
2018-11-21T08:02:30.656Z,1.50
2018-11-21T08:08:04.807Z,1.60
2018-11-21T08:13:24.393Z,1.60
2018-11-21T08:18:44.572Z,1.60
2018-11-21T08:24:22.963Z,1.60
2018-11-21T08:29:26.104Z,1.60
2018-11-21T08:34:29.201Z,1.70
2018-11-21T08:39:32.380Z,1.70
2018-11-21T08:44:35.547Z,1.70
2018-11-21T08:49:38.619Z,1.70
2018-11-21T08:54:41.701Z,1.80
2018-11-21T08:59:44.733Z,1.80
2018-11-21T09:04:47.822Z,1.80
2018-11-21T09:09:50.934Z,1.80
2018-11-21T09:14:54.015Z,1.80
2018-11-21T09:19:57.079Z,1.80
2018-11-21T09:25:00.144Z,1.80
2018-11-21T09:30:03.912Z,1.80
2018-11-21T09:35:11.532Z,1.80
2018-11-21T09:40:16.732Z,1.80
2018-11-21T09:45:20.873Z,1.90
2018-11-21T09:50:28.192Z,1.90
2018-11-21T09:55:31.288Z,1.90
2018-11-21T10:01:10.932Z,1.90
2018-11-21T10:06:24.449Z,1.90
2018-11-21T10:11:27.948Z,2.00
2018-11-21T10:16:30.998Z,2.00
2018-11-21T10:21:35.073Z,2.00
2018-11-21T10:26:38.178Z,2.10
2018-11-21T10:31:41.209Z,2.10
2018-11-21T10:36:44.244Z,2.10
2018-11-21T10:41:47.367Z,2.10
2018-11-21T10:46:50.446Z,2.20
2018-11-21T10:51:53.515Z,2.20
2018-11-21T10:56:56.568Z,2.20
2018-11-21T11:02:17.977Z,2.20
2018-11-21T11:07:42.876Z,2.30
2018-11-21T11:13:11.201Z,2.30
2018-11-21T11:18:33.575Z,2.30
2018-11-21T11:23:52.893Z,2.30
2018-11-21T11:29:21.231Z,2.30
2018-11-21T11:34:39.553Z,2.30
2018-11-21T11:40:00.527Z,2.30
2018-11-21T11:45:21.331Z,2.30
2018-11-21T11:50:46.506Z,2.40
2018-11-21T11:56:07.582Z,2.40
2018-11-21T12:01:34.618Z,2.40
2018-11-21T12:07:00.576Z,2.40
2018-11-21T12:12:21.768Z,2.50
2018-11-21T12:17:37.806Z,2.50
2018-11-21T12:23:05.494Z,2.50
2018-11-21T12:28:25.189Z,2.50
2018-11-21T12:34:00.137Z,2.50
2018-11-21T12:39:21.221Z,2.50
2018-11-21T12:44:55.601Z,2.50
2018-11-21T12:50:16.456Z,2.50
2018-11-21T12:55:33.461Z,2.50
2018-11-21T13:01:01.601Z,2.50
2018-11-21T13:06:24.005Z,2.50
2018-11-21T13:11:45.143Z,2.50
2018-11-21T13:17:03.714Z,2.50
2018-11-21T13:22:24.513Z,2.40
2018-11-21T13:27:53.747Z,2.40
2018-11-21T13:33:06.786Z,2.30
2018-11-21T13:38:27.653Z,2.30
2018-11-21T13:43:48.555Z,2.30
2018-11-21T13:49:14.760Z,2.30
2018-11-21T13:54:39.639Z,2.30
2018-11-21T13:59:42.710Z,2.30
2018-11-21T14:04:45.785Z,2.30
2018-11-21T14:09:48.853Z,2.30
2018-11-21T14:14:51.895Z,2.20
2018-11-21T14:19:54.990Z,2.20
2018-11-21T14:24:58.075Z,2.20
2018-11-21T14:30:01.494Z,2.20
2018-11-21T14:35:05.872Z,2.20
2018-11-21T14:40:11.767Z,2.20
2018-11-21T14:45:16.106Z,2.20
2018-11-21T14:50:27.710Z,2.10
2018-11-21T14:55:30.749Z,2.10
2018-11-21T15:00:33.810Z,2.10
2018-11-21T15:05:36.892Z,2.10
2018-11-21T15:10:40.041Z,2.10
2018-11-21T15:15:43.089Z,2.10
2018-11-21T15:20:46.182Z,2.10
2018-11-21T15:25:49.228Z,2.10
2018-11-21T15:30:52.291Z,2.20
2018-11-21T15:35:55.440Z,2.10
2018-11-21T15:40:58.525Z,2.10
2018-11-21T15:46:01.597Z,2.10
2018-11-21T15:51:05.023Z,2.10
2018-11-21T15:56:08.042Z,2.10
2018-11-21T16:01:11.149Z,2.00
2018-11-21T16:06:14.236Z,2.00
2018-11-21T16:11:17.308Z,2.00
2018-11-21T16:16:20.371Z,2.00
2018-11-21T16:21:23.447Z,1.90
2018-11-21T16:26:26.484Z,1.90
2018-11-21T16:31:29.572Z,2.00
2018-11-21T16:36:32.674Z,1.90
2018-11-21T16:41:35.737Z,1.90
2018-11-21T16:46:38.905Z,1.90
2018-11-21T16:51:42.017Z,1.90
2018-11-21T16:56:45.102Z,1.90
2018-11-21T17:01:48.164Z,1.80
2018-11-21T17:06:51.232Z,1.80
2018-11-21T17:11:54.305Z,1.80
